Time;durP1;ratioP1;P1;durP2;ratioP2;P2;SDS_P1;SDS_P2;PMS_P1;PMS_P2;Temp;Humidity;BMP_temperature;BMP_pressure;BME280_temperature;BME280_humidity;BME280_pressure;Samples;Min_cycle;Max_cycle;Signal;HPM_P1;HPM_P2
2022/09/22 00:01:35;;;;;;;8.43;6.20;;;10.70;99.90;;;;;;5114167;28;20626;-62
2022/09/22 00:04:05;;;;;;;9.43;6.50;;;10.70;99.90;;;;;;5092070;28;20180;-62
2022/09/22 00:06:43;;;;;;;6.47;5.43;;;10.70;99.90;;;;;;5111229;28;20175;-65
2022/09/22 00:09:11;;;;;;;8.53;6.20;;;10.70;99.90;;;;;;5095257;28;20550;-62
2022/09/22 00:11:41;;;;;;;15.15;5.95;;;10.70;99.90;;;;;;5093761;28;20172;-62
2022/09/22 00:14:09;;;;;;;6.60;5.93;;;10.60;99.90;;;;;;5113292;27;20222;-62
2022/09/22 00:16:41;;;;;;;5.90;5.30;;;10.70;99.90;;;;;;5111457;27;20225;-63
2022/09/22 00:19:09;;;;;;;5.97;5.37;;;10.60;99.90;;;;;;5104923;27;20217;-64
2022/09/22 00:21:35;;;;;;;7.53;5.57;;;10.60;99.90;;;;;;5103710;28;20218;-63
2022/09/22 00:24:03;;;;;;;8.07;6.03;;;10.60;99.90;;;;;;5113438;28;20652;-63
2022/09/22 00:26:30;;;;;;;6.03;5.17;;;10.60;99.90;;;;;;5092485;28;20195;-62
2022/09/22 00:28:56;;;;;;;7.50;6.17;;;10.60;99.90;;;;;;5058893;28;20546;-63
2022/09/22 00:31:24;;;;;;;8.97;6.27;;;10.50;99.90;;;;;;5104870;28;20188;-62
2022/09/22 00:33:51;;;;;;;6.33;5.80;;;10.50;99.90;;;;;;5100068;28;20295;-62
2022/09/22 00:36:18;;;;;;;8.90;5.23;;;10.40;99.90;;;;;;5081683;28;20192;-63
2022/09/22 00:38:45;;;;;;;7.03;5.63;;;10.40;99.90;;;;;;5064129;28;20544;-63
2022/09/22 00:41:17;;;;;;;6.07;5.20;;;10.40;99.90;;;;;;5093402;28;20179;-62
2022/09/22 00:43:47;;;;;;;6.30;5.70;;;10.30;99.90;;;;;;5107196;28;20180;-63
2022/09/22 00:46:25;;;;;;;11.33;6.27;;;10.30;99.90;;;;;;5101319;28;20177;-63
2022/09/22 00:49:04;;;;;;;9.93;6.57;;;10.30;99.90;;;;;;5106460;28;20184;-63
2022/09/22 00:51:33;;;;;;;8.90;6.33;;;10.30;99.90;;;;;;5094100;28;20175;-62
2022/09/22 00:54:03;;;;;;;10.73;7.30;;;10.20;99.90;;;;;;5108220;28;20210;-63
2022/09/22 00:56:41;;;;;;;7.83;5.90;;;10.20;99.90;;;;;;5107964;28;20207;-62
2022/09/22 00:59:11;;;;;;;9.13;6.77;;;10.20;99.90;;;;;;5091265;28;20187;-63
2022/09/22 01:01:39;;;;;;;6.40;5.30;;;10.20;99.90;;;;;;5105165;28;20173;-62
2022/09/22 01:04:05;;;;;;;7.37;6.00;;;10.20;99.90;;;;;;5090765;28;20248;-62
2022/09/22 01:06:33;;;;;;;10.60;7.13;;;10.20;99.90;;;;;;5109673;28;20180;-62
2022/09/22 01:09:00;;;;;;;9.47;6.90;;;10.10;99.90;;;;;;5107454;28;20216;-62
2022/09/22 01:11:28;;;;;;;9.87;6.00;;;10.10;99.90;;;;;;5107281;28;20599;-64
2022/09/22 01:14:12;;;;;;;7.23;5.13;;;10.10;99.90;;;;;;5110572;28;20203;-63
2022/09/22 01:16:56;;;;;;;7.33;5.93;;;10.10;99.90;;;;;;5099283;28;20187;-62
2022/09/22 01:19:48;;;;;;;8.13;6.07;;;10.10;99.90;;;;;;5106582;28;20168;-63
2022/09/22 01:22:33;;;;;;;7.03;6.00;;;10.00;99.90;;;;;;5106458;28;20514;-62
2022/09/22 01:25:30;;;;;;;7.43;6.30;;;10.10;99.90;;;;;;5107505;28;20188;-62
2022/09/22 01:28:14;;;;;;;9.17;5.63;;;10.00;99.90;;;;;;5080956;28;20173;-63
2022/09/22 01:30:46;;;;;;;7.03;6.33;;;10.10;99.90;;;;;;5089667;28;20183;-63
2022/09/22 01:33:17;;;;;;;8.60;6.20;;;10.10;99.90;;;;;;5106017;28;20292;-62
2022/09/22 01:36:20;;;;;;;6.87;5.80;;;10.10;99.90;;;;;;5100818;28;20181;-62
2022/09/22 01:39:05;;;;;;;8.70;5.73;;;10.10;99.90;;;;;;5100936;28;20184;-62
2022/09/22 01:41:47;;;;;;;6.40;5.70;;;10.00;99.90;;;;;;5076687;28;20698;-63
2022/09/22 01:44:24;;;;;;;6.30;5.67;;;10.00;99.90;;;;;;5105444;28;20203;-62
2022/09/22 01:46:55;;;;;;;7.50;6.20;;;10.00;99.90;;;;;;5107327;28;20191;-63
2022/09/22 01:49:23;;;;;;;7.57;6.10;;;10.00;99.90;;;;;;5112938;28;20172;-62
2022/09/22 01:52:01;;;;;;;8.07;5.83;;;10.00;99.90;;;;;;5107178;28;20646;-62
2022/09/22 01:55:10;;;;;;;9.10;6.50;;;9.90;99.90;;;;;;5094733;28;20615;-62
2022/09/22 01:57:43;;;;;;;9.07;5.90;;;9.90;99.90;;;;;;5097934;28;20242;-63
2022/09/22 02:00:10;;;;;;;8.73;6.17;;;9.90;99.90;;;;;;5110461;27;20179;-62
2022/09/22 02:02:51;;;;;;;7.07;5.70;;;9.80;99.90;;;;;;5096686;28;20225;-63
2022/09/22 02:05:33;;;;;;;7.27;6.23;;;9.80;99.90;;;;;;5109999;28;20168;-63
2022/09/22 02:08:02;;;;;;;7.90;6.07;;;9.80;99.90;;;;;;5105216;27;20267;-62
2022/09/22 02:10:33;;;;;;;7.60;5.33;;;9.80;99.90;;;;;;5114504;27;20567;-62
2022/09/22 02:13:00;;;;;;;9.93;6.07;;;9.70;99.90;;;;;;5109839;27;20176;-62
2022/09/22 02:18:17;;;;;;;6.70;6.07;;;9.70;99.90;;;;;;5110196;27;20260;-62
2022/09/22 02:20:43;;;;;;;7.37;6.20;;;9.70;99.90;;;;;;5093273;28;20173;-62
2022/09/22 02:23:09;;;;;;;11.57;8.07;;;9.70;99.90;;;;;;5113002;28;20199;-62
2022/09/22 02:25:39;;;;;;;8.73;6.77;;;9.70;99.90;;;;;;5102711;28;20180;-62
2022/09/22 02:28:06;;;;;;;8.30;7.33;;;9.70;99.90;;;;;;5115955;27;20176;-62
2022/09/22 02:30:32;;;;;;;7.13;6.43;;;9.70;99.90;;;;;;5097170;28;20176;-62
2022/09/22 02:32:59;;;;;;;7.93;6.93;;;9.60;99.90;;;;;;5093291;28;20180;-62
2022/09/22 02:35:28;;;;;;;8.83;6.60;;;9.60;99.90;;;;;;5115450;28;20192;-63
2022/09/22 02:38:08;;;;;;;7.93;7.13;;;9.50;99.90;;;;;;5097108;28;20184;-62
2022/09/22 02:41:07;;;;;;;10.00;7.13;;;9.50;99.90;;;;;;5109140;27;20240;-62
2022/09/22 02:44:01;;;;;;;9.87;6.60;;;9.40;99.90;;;;;;5107813;28;20537;-63
2022/09/22 02:46:42;;;;;;;6.73;5.73;;;9.40;99.90;;;;;;5121132;27;20719;-62
2022/09/22 02:49:15;;;;;;;7.53;6.13;;;9.40;99.90;;;;;;5089555;28;20202;-63
2022/09/22 02:51:42;;;;;;;9.37;7.23;;;9.40;99.90;;;;;;5106836;27;20633;-63
2022/09/22 02:54:08;;;;;;;8.33;6.60;;;9.40;99.90;;;;;;5112500;27;20210;-65
2022/09/22 02:56:34;;;;;;;10.47;7.10;;;9.30;99.90;;;;;;5114976;28;20263;-62
2022/09/22 02:58:59;;;;;;;7.30;6.43;;;9.30;99.90;;;;;;5082713;28;20185;-63
2022/09/22 03:01:25;;;;;;;7.90;7.00;;;9.30;99.90;;;;;;5087984;28;20188;-63
2022/09/22 03:03:51;;;;;;;9.27;6.17;;;9.20;99.90;;;;;;5083887;28;20195;-62
2022/09/22 03:06:17;;;;;;;7.33;6.03;;;9.20;99.90;;;;;;5095738;28;20321;-63
2022/09/22 03:08:42;;;;;;;10.40;6.50;;;9.30;99.90;;;;;;5097098;28;20191;-62
2022/09/22 03:11:08;;;;;;;12.33;6.27;;;9.30;99.90;;;;;;5079854;28;20283;-63
2022/09/22 03:13:34;;;;;;;8.70;7.37;;;9.20;99.90;;;;;;5111763;28;20200;-62
2022/09/22 03:15:59;;;;;;;6.07;5.33;;;9.20;99.90;;;;;;5096393;28;20189;-62
2022/09/22 03:18:25;;;;;;;9.67;7.07;;;9.10;99.90;;;;;;5087678;28;20184;-62
2022/09/22 03:20:51;;;;;;;9.47;6.43;;;9.10;99.90;;;;;;5074822;28;20208;-62
2022/09/22 03:23:16;;;;;;;9.50;6.27;;;9.10;99.90;;;;;;5108136;28;20659;-62
2022/09/22 03:25:42;;;;;;;13.70;7.27;;;9.00;99.90;;;;;;5079462;27;20184;-62
2022/09/22 03:28:08;;;;;;;10.90;6.70;;;9.00;99.90;;;;;;5080347;27;20176;-63
2022/09/22 03:30:36;;;;;;;9.57;7.30;;;9.00;99.90;;;;;;5102457;27;20209;-62
2022/09/22 03:33:01;;;;;;;6.83;5.90;;;9.00;99.90;;;;;;5078309;28;20177;-62
2022/09/22 03:35:27;;;;;;;10.07;6.90;;;9.00;99.90;;;;;;5113745;27;20192;-63
2022/09/22 03:37:53;;;;;;;7.37;6.07;;;9.00;99.90;;;;;;5096271;27;20180;-63
2022/09/22 03:40:18;;;;;;;7.73;6.93;;;9.00;99.90;;;;;;5092257;28;20706;-64
2022/09/22 03:42:44;;;;;;;8.97;6.30;;;9.00;99.90;;;;;;5099711;27;20214;-62
2022/09/22 03:45:11;;;;;;;9.20;8.27;;;9.00;99.90;;;;;;5086018;28;20180;-62
2022/09/22 03:47:37;;;;;;;8.87;7.17;;;9.00;99.90;;;;;;5091317;28;20662;-62
2022/09/22 03:50:03;;;;;;;9.03;7.13;;;8.90;99.90;;;;;;5101449;28;20181;-62
2022/09/22 03:52:28;;;;;;;8.63;5.90;;;8.90;99.90;;;;;;5105796;27;20180;-62
2022/09/22 03:54:54;;;;;;;9.97;5.73;;;8.90;99.90;;;;;;5113941;27;20211;-62
2022/09/22 03:57:20;;;;;;;8.97;6.03;;;8.90;99.90;;;;;;5092944;28;20208;-62
2022/09/22 03:59:45;;;;;;;7.37;6.33;;;8.80;99.90;;;;;;5106863;28;20181;-63
2022/09/22 04:02:11;;;;;;;10.30;6.80;;;8.80;99.90;;;;;;5094245;28;20184;-64
2022/09/22 04:04:37;;;;;;;9.13;7.30;;;8.80;99.90;;;;;;5112571;28;20654;-63
2022/09/22 04:07:02;;;;;;;7.27;6.13;;;8.80;99.90;;;;;;5087678;28;20186;-62
2022/09/22 04:09:28;;;;;;;12.70;6.07;;;8.80;99.90;;;;;;5112941;27;20674;-63
2022/09/22 04:11:54;;;;;;;8.97;7.07;;;8.70;99.90;;;;;;5088894;28;20236;-62
2022/09/22 04:14:19;;;;;;;8.10;6.07;;;8.70;99.90;;;;;;5086749;28;20200;-63
2022/09/22 04:16:45;;;;;;;10.17;6.50;;;8.60;99.90;;;;;;5069714;27;20191;-62
2022/09/22 04:19:12;;;;;;;8.23;5.23;;;8.60;99.90;;;;;;5104180;28;20176;-63
2022/09/22 04:21:37;;;;;;;6.73;5.77;;;8.60;99.90;;;;;;5104084;28;20184;-62
2022/09/22 04:24:06;;;;;;;10.53;6.33;;;8.60;99.90;;;;;;5111735;28;20634;-63
2022/09/22 04:26:32;;;;;;;9.27;7.17;;;8.60;99.90;;;;;;5093623;28;20184;-63
2022/09/22 04:28:57;;;;;;;7.67;5.90;;;8.60;99.90;;;;;;5102675;27;20182;-63
2022/09/22 04:31:23;;;;;;;8.13;6.53;;;8.50;99.90;;;;;;5093929;28;20238;-63
2022/09/22 04:33:49;;;;;;;7.30;6.60;;;8.60;99.90;;;;;;5107022;28;20230;-63
2022/09/22 04:36:14;;;;;;;7.47;6.10;;;8.60;99.90;;;;;;5081781;27;21728;-62
2022/09/22 04:38:40;;;;;;;10.43;6.70;;;8.60;99.90;;;;;;5081578;28;20196;-62
2022/09/22 04:41:06;;;;;;;7.50;5.67;;;8.50;99.90;;;;;;5111969;28;20583;-63
2022/09/22 04:43:31;;;;;;;8.10;6.30;;;8.40;99.90;;;;;;5099331;28;20189;-62
2022/09/22 04:45:57;;;;;;;8.20;5.87;;;8.40;99.90;;;;;;5084940;28;20175;-64
2022/09/22 04:48:23;;;;;;;7.23;5.83;;;8.40;99.90;;;;;;5081650;28;20203;-64
2022/09/22 04:50:48;;;;;;;8.60;6.40;;;8.40;99.90;;;;;;5093936;28;20188;-62
2022/09/22 04:53:14;;;;;;;8.00;6.13;;;8.40;99.90;;;;;;5106523;28;20680;-62
2022/09/22 04:55:40;;;;;;;10.93;6.67;;;8.40;99.90;;;;;;5095053;28;20192;-62
2022/09/22 04:58:06;;;;;;;9.63;6.67;;;8.40;99.90;;;;;;5121134;28;20697;-64
2022/09/22 05:00:32;;;;;;;7.77;5.57;;;8.50;99.90;;;;;;5060004;28;20181;-62
2022/09/22 05:03:00;;;;;;;7.37;5.47;;;8.40;99.90;;;;;;5095052;28;20624;-62
2022/09/22 05:05:26;;;;;;;9.33;6.87;;;8.40;99.90;;;;;;5112508;28;20690;-63
2022/09/22 05:07:53;;;;;;;8.67;6.60;;;8.30;99.90;;;;;;5078643;28;20233;-62
2022/09/22 05:10:23;;;;;;;7.93;6.87;;;8.20;99.90;;;;;;5119313;28;20195;-62
2022/09/22 05:12:48;;;;;;;8.60;7.50;;;8.30;99.90;;;;;;5094303;28;20191;-62
2022/09/22 05:15:14;;;;;;;9.33;6.60;;;8.30;99.90;;;;;;5056661;28;20298;-63
2022/09/22 05:17:49;;;;;;;8.13;6.70;;;8.30;99.90;;;;;;5081320;28;20242;-62
2022/09/22 05:20:15;;;;;;;8.07;6.77;;;8.30;99.90;;;;;;5106771;28;20176;-62
2022/09/22 05:22:42;;;;;;;7.50;6.30;;;8.30;99.90;;;;;;5088148;28;20176;-62
2022/09/22 05:25:12;;;;;;;10.40;6.60;;;8.30;99.90;;;;;;5112085;28;20176;-62
2022/09/22 05:28:07;;;;;;;9.87;6.70;;;8.30;99.90;;;;;;5103790;28;20667;-62
2022/09/22 05:30:33;;;;;;;7.57;6.77;;;8.30;99.90;;;;;;5096740;28;20203;-64
2022/09/22 05:32:58;;;;;;;9.67;6.47;;;8.20;99.90;;;;;;5109462;28;20267;-63
2022/09/22 05:35:24;;;;;;;11.97;8.23;;;8.20;99.90;;;;;;5059732;27;20645;-62
2022/09/22 05:37:51;;;;;;;8.47;6.90;;;8.30;99.90;;;;;;5071657;28;20180;-63
2022/09/22 05:40:18;;;;;;;8.90;6.67;;;8.40;99.90;;;;;;5113608;27;20184;-63
2022/09/22 05:42:48;;;;;;;7.53;5.90;;;8.30;99.90;;;;;;5096658;28;20196;-62
2022/09/22 05:45:15;;;;;;;8.80;6.53;;;8.30;99.90;;;;;;5111014;27;20176;-63
2022/09/22 05:47:42;;;;;;;8.77;6.37;;;8.30;99.90;;;;;;5115959;28;20180;-63
2022/09/22 05:50:09;;;;;;;8.70;6.30;;;8.30;99.90;;;;;;5115833;28;20656;-63
2022/09/22 05:52:35;;;;;;;8.23;7.07;;;8.30;99.90;;;;;;5078019;28;20326;-63
2022/09/22 05:55:01;;;;;;;7.30;6.70;;;8.30;99.90;;;;;;5091416;28;20287;-63
2022/09/22 05:57:26;;;;;;;8.80;6.20;;;8.30;99.90;;;;;;5094970;28;20184;-62
2022/09/22 05:59:53;;;;;;;8.73;6.67;;;8.40;99.90;;;;;;5108313;27;20188;-62
2022/09/22 06:02:19;;;;;;;8.60;6.53;;;8.40;99.90;;;;;;5066830;28;20195;-63
2022/09/22 06:04:45;;;;;;;6.73;5.70;;;8.40;99.90;;;;;;5102881;27;20648;-62
2022/09/22 06:07:11;;;;;;;10.23;7.17;;;8.40;99.90;;;;;;5081189;28;20184;-63
2022/09/22 06:09:36;;;;;;;9.20;6.67;;;8.50;99.90;;;;;;5088573;28;20192;-62
2022/09/22 06:12:02;;;;;;;11.80;8.00;;;8.50;99.90;;;;;;5090536;27;20187;-63
2022/09/22 06:14:28;;;;;;;10.67;7.70;;;8.50;99.90;;;;;;5114966;28;20617;-63
2022/09/22 06:16:54;;;;;;;9.93;8.20;;;8.60;99.90;;;;;;5102752;27;20225;-63
2022/09/22 06:19:22;;;;;;;7.60;6.80;;;8.60;99.90;;;;;;5078505;28;20645;-63
2022/09/22 06:21:48;;;;;;;11.50;7.83;;;8.60;99.90;;;;;;5110890;28;20179;-62
2022/09/22 06:24:15;;;;;;;10.97;8.13;;;8.60;99.90;;;;;;5103157;27;20183;-62
2022/09/22 06:26:40;;;;;;;22.27;14.43;;;8.60;99.90;;;;;;5096502;28;20189;-62
2022/09/22 06:29:07;;;;;;;20.30;14.07;;;8.60;99.90;;;;;;5095728;27;20591;-63
2022/09/22 06:31:33;;;;;;;23.23;14.63;;;8.60;99.90;;;;;;5106232;27;20176;-62
2022/09/22 06:33:58;;;;;;;15.40;9.97;;;8.70;99.90;;;;;;5097630;27;20208;-63
2022/09/22 06:36:30;;;;;;;15.07;8.57;;;8.70;99.90;;;;;;5097281;28;20184;-63
2022/09/22 06:38:57;;;;;;;10.60;8.20;;;8.80;99.90;;;;;;5083311;27;20188;-63
2022/09/22 06:41:33;;;;;;;10.97;8.90;;;8.80;99.90;;;;;;5080789;28;20192;-62
2022/09/22 06:43:58;;;;;;;13.03;9.17;;;8.90;99.90;;;;;;5101381;27;20525;-62
2022/09/22 06:46:25;;;;;;;10.33;8.33;;;8.90;99.90;;;;;;5080742;28;20179;-63
2022/09/22 06:48:57;;;;;;;13.80;7.97;;;9.00;99.90;;;;;;5092703;28;20190;-62
2022/09/22 06:51:25;;;;;;;14.53;9.17;;;9.00;99.90;;;;;;5114555;27;20229;-62
2022/09/22 06:53:53;;;;;;;11.80;7.87;;;9.10;99.90;;;;;;5093491;28;20645;-62
2022/09/22 06:56:20;;;;;;;13.60;8.67;;;9.20;99.90;;;;;;5068287;28;20246;-61
2022/09/22 06:58:48;;;;;;;13.70;8.40;;;9.20;99.90;;;;;;5083225;28;20173;-62
2022/09/22 07:01:14;;;;;;;11.60;9.03;;;9.30;99.90;;;;;;5115201;27;20232;-62
2022/09/22 07:03:40;;;;;;;11.07;9.17;;;9.40;99.90;;;;;;5096007;28;20187;-62
2022/09/22 07:06:07;;;;;;;10.50;8.80;;;9.40;99.90;;;;;;5099975;28;20548;-63
2022/09/22 07:08:34;;;;;;;13.30;8.60;;;9.50;99.90;;;;;;5116587;27;20229;-62
2022/09/22 07:11:02;;;;;;;12.63;9.10;;;10.00;99.90;;;;;;5108008;27;20245;-68
2022/09/22 07:13:30;;;;;;;16.10;10.38;;;11.70;99.90;;;;;;5109806;27;20204;-63
2022/09/22 07:16:00;;;;;;;13.85;9.02;;;13.60;99.90;;;;;;5101810;28;20176;-63
2022/09/22 07:18:27;;;;;;;8.85;7.88;;;15.50;99.90;;;;;;5107986;27;20183;-64
2022/09/22 07:21:04;;;;;;;10.02;6.93;;;17.10;99.90;;;;;;5094612;28;20184;-64
2022/09/22 07:23:30;;;;;;;7.82;5.82;;;18.30;99.90;;;;;;5107608;27;20214;-61
2022/09/22 07:25:59;;;;;;;9.82;7.20;;;19.50;99.90;;;;;;5074450;28;20208;-62
2022/09/22 07:28:28;;;;;;;8.30;6.30;;;20.30;99.90;;;;;;5114959;27;20211;-61
2022/09/22 07:30:58;;;;;;;7.32;5.13;;;21.10;99.90;;;;;;5096180;28;20637;-61
2022/09/22 07:33:24;;;;;;;8.00;5.28;;;21.70;99.90;;;;;;5091254;28;20212;-61
2022/09/22 07:36:05;;;;;;;7.50;5.70;;;22.10;99.90;;;;;;5111454;27;20194;-62
2022/09/22 07:38:35;;;;;;;7.18;6.47;;;22.80;99.90;;;;;;5085644;28;20179;-62
2022/09/22 07:41:03;;;;;;;6.30;5.68;;;23.30;99.90;;;;;;5113647;28;20203;-62
2022/09/22 07:43:30;;;;;;;9.00;5.35;;;23.60;99.90;;;;;;5095287;28;20593;-62
2022/09/22 07:45:58;;;;;;;7.20;6.50;;;23.70;99.90;;;;;;5108509;27;20188;-62
2022/09/22 07:48:36;;;;;;;10.93;7.47;;;23.90;99.90;;;;;;5092846;28;20184;-62
2022/09/22 07:51:07;;;;;;;6.50;5.28;;;23.80;99.90;;;;;;5093706;28;20700;-62
2022/09/22 07:53:34;;;;;;;9.68;5.50;;;23.80;99.90;;;;;;5109712;28;20424;-62
2022/09/22 07:56:14;;;;;;;17.33;5.97;;;24.10;99.90;;;;;;5096004;28;20188;-62
2022/09/22 07:58:53;;;;;;;6.68;5.85;;;23.50;99.90;;;;;;5111904;28;20172;-63
2022/09/22 08:01:21;;;;;;;7.63;6.28;;;23.80;99.90;;;;;;5087141;28;20216;-63
2022/09/22 08:03:47;;;;;;;6.68;5.57;;;24.50;99.90;;;;;;5090498;28;20198;-62
2022/09/22 08:06:15;;;;;;;11.13;7.07;;;24.50;99.90;;;;;;5095851;27;20267;-63
2022/09/22 08:08:46;;;;;;;9.05;7.05;;;24.90;99.90;;;;;;5113580;28;20539;-63
2022/09/22 08:11:16;;;;;;;7.68;5.95;;;24.20;99.90;;;;;;5108623;27;20183;-62
2022/09/22 08:13:53;;;;;;;6.32;5.47;;;24.60;99.90;;;;;;5111618;28;20195;-62
2022/09/22 08:16:21;;;;;;;8.80;5.45;;;25.00;99.90;;;;;;5108454;28;20183;-63
2022/09/22 08:18:53;;;;;;;9.60;5.82;;;25.10;99.90;;;;;;5082927;28;20172;-63
2022/09/22 08:21:19;;;;;;;6.50;4.95;;;25.60;99.90;;;;;;5070929;28;20218;-62
2022/09/22 08:23:45;;;;;;;7.43;5.40;;;25.70;99.90;;;;;;5108125;27;20612;-63
2022/09/22 08:26:11;;;;;;;8.35;6.28;;;26.30;99.90;;;;;;5077382;28;20222;-63
2022/09/22 08:28:37;;;;;;;6.93;5.10;;;26.40;99.90;;;;;;5105940;27;20171;-63
2022/09/22 08:31:03;;;;;;;8.77;4.93;;;25.90;99.90;;;;;;5107082;28;20183;-62
2022/09/22 08:33:30;;;;;;;14.45;7.82;;;24.70;99.90;;;;;;5098214;27;20794;-63
2022/09/22 08:36:01;;;;;;;6.50;5.05;;;23.60;99.90;;;;;;5102563;27;20518;-63
2022/09/22 08:38:27;;;;;;;6.82;6.13;;;22.80;99.90;;;;;;5108974;28;20201;-64
2022/09/22 08:41:07;;;;;;;8.57;4.85;;;21.90;99.90;;;;;;5077455;28;20267;-64
2022/09/22 08:43:33;;;;;;;6.55;4.97;;;20.70;99.90;;;;;;5089773;28;20535;-64
2022/09/22 08:46:02;;;;;;;5.85;5.05;;;19.80;99.90;;;;;;5113316;28;20190;-64
2022/09/22 08:54:10;;;;;;;5.35;4.80;;;18.30;99.90;;;;;;5112306;28;20215;-65
2022/09/22 08:56:38;;;;;;;5.72;5.03;;;18.20;99.90;;;;;;5085658;28;20181;-64
2022/09/22 08:59:21;;;;;;;5.65;5.05;;;18.10;99.90;;;;;;5104938;28;20697;-64
2022/09/22 09:02:11;;;;;;;7.65;4.78;;;18.00;99.90;;;;;;5099696;28;20180;-64
2022/09/22 09:04:53;;;;;;;11.05;4.97;;;17.70;99.90;;;;;;5081446;27;20203;-63
2022/09/22 09:07:42;;;;;;;6.40;4.68;;;17.30;99.90;;;;;;5117058;28;20178;-65
2022/09/22 09:10:14;;;;;;;8.65;6.30;;;17.30;99.90;;;;;;5105251;28;20683;-64
2022/09/22 09:12:53;;;;;;;5.53;4.63;;;17.40;99.90;;;;;;5113455;28;20211;-64
2022/09/22 09:15:27;;;;;;;5.82;3.95;;;17.30;99.90;;;;;;5116674;27;20223;-63
2022/09/22 09:17:58;;;;;;;5.32;4.00;;;17.20;99.90;;;;;;5116723;28;20187;-64
2022/09/22 09:20:37;;;;;;;8.40;4.70;;;17.20;99.90;;;;;;5117029;28;20182;-64
2022/09/22 09:23:25;;;;;;;5.78;5.18;;;17.10;99.90;;;;;;5087428;28;20172;-63
2022/09/22 09:25:54;;;;;;;10.82;6.28;;;17.10;99.90;;;;;;5089206;28;20176;-64
2022/09/22 09:28:24;;;;;;;5.13;4.63;;;17.10;99.90;;;;;;5101271;27;20180;-64
2022/09/22 09:30:52;;;;;;;5.18;4.32;;;17.30;99.90;;;;;;5088190;28;20684;-64
2022/09/22 09:33:35;;;;;;;8.93;4.85;;;17.50;99.90;;;;;;5109183;28;20222;-63
2022/09/22 09:36:01;;;;;;;13.50;6.20;;;17.60;99.90;;;;;;5099361;28;20188;-65
2022/09/22 09:38:34;;;;;;;8.65;4.57;;;17.60;99.90;;;;;;5106278;27;20199;-63
2022/09/22 09:41:34;;;;;;;7.72;4.03;;;17.70;99.90;;;;;;5105943;28;20271;-63
2022/09/22 09:44:01;;;;;;;5.95;4.05;;;17.70;99.90;;;;;;5054887;28;20644;-63
2022/09/22 09:46:36;;;;;;;7.05;4.07;;;17.70;99.90;;;;;;5119575;27;20563;-63
2022/09/22 09:49:13;;;;;;;5.07;4.22;;;17.70;99.90;;;;;;5116608;27;20190;-63
2022/09/22 09:51:49;;;;;;;4.68;3.25;;;18.30;99.90;;;;;;5108728;27;20176;-63
2022/09/22 09:54:17;;;;;;;7.25;3.60;;;18.40;99.90;;;;;;5086177;27;20226;-64
2022/09/22 09:57:07;;;;;;;6.20;3.47;;;18.60;99.90;;;;;;5095979;28;20680;-63
2022/09/22 10:02:27;;;;;;;5.82;3.17;;;18.50;99.90;;;;;;5052859;28;20188;-63
2022/09/22 10:05:06;;;;;;;7.70;2.78;;;18.50;99.90;;;;;;5106835;27;20184;-65
2022/09/22 10:07:45;;;;;;;6.40;3.13;;;18.60;99.90;;;;;;5095341;28;20173;-63
2022/09/22 10:10:30;;;;;;;3.63;3.33;;;18.50;99.90;;;;;;5091886;28;20188;-64
2022/09/22 10:13:05;;;;;;;4.45;2.50;;;18.60;99.90;;;;;;5107423;28;20187;-63
2022/09/22 10:15:41;;;;;;;4.55;2.42;;;18.50;99.90;;;;;;5115411;27;20274;-63
2022/09/22 10:18:34;;;;;;;5.30;2.38;;;18.30;99.90;;;;;;5105639;27;20199;-64
2022/09/22 10:21:05;;;;;;;5.60;3.55;;;18.20;99.90;;;;;;5080618;27;20219;-63
2022/09/22 10:23:32;;;;;;;4.40;2.25;;;18.20;99.90;;;;;;5115425;28;20518;-63
2022/09/22 10:26:18;;;;;;;3.45;1.75;;;18.40;99.90;;;;;;5102347;28;20592;-63
2022/09/22 10:28:49;;;;;;;3.70;2.95;;;18.50;99.90;;;;;;5115289;28;20211;-63
2022/09/22 10:31:25;;;;;;;1.98;1.50;;;18.70;99.90;;;;;;5100205;28;20173;-63
2022/09/22 10:33:58;;;;;;;3.50;2.20;;;18.70;99.90;;;;;;5113540;27;20211;-63
2022/09/22 10:36:26;;;;;;;1.88;1.50;;;18.70;99.90;;;;;;5126326;27;20208;-63
2022/09/22 10:38:53;;;;;;;4.57;1.73;;;18.60;99.90;;;;;;5114121;28;20188;-63
2022/09/22 10:41:27;;;;;;;3.38;0.90;;;18.60;99.90;;;;;;5107230;27;20778;-64
2022/09/22 10:44:16;;;;;;;0.90;0.90;;;18.90;99.90;;;;;;5115496;27;20180;-64
2022/09/22 10:47:05;;;;;;;2.13;1.05;;;19.20;99.90;;;;;;5115539;28;20208;-63
2022/09/22 10:49:58;;;;;;;4.65;0.85;;;19.30;99.90;;;;;;5095068;27;20168;-64
2022/09/22 10:52:41;;;;;;;0.88;0.88;;;19.50;99.90;;;;;;5090530;27;20214;-64
2022/09/22 10:55:07;;;;;;;2.03;1.05;;;19.80;99.90;;;;;;5090598;28;20230;-64
2022/09/22 10:57:44;;;;;;;0.90;0.85;;;19.60;99.90;;;;;;5110071;28;20184;-64
2022/09/22 11:00:20;;;;;;;2.17;1.20;;;19.50;99.90;;;;;;5085576;27;20179;-63
2022/09/22 11:03:17;;;;;;;0.90;0.90;;;19.60;99.90;;;;;;5104876;28;20593;-63
2022/09/22 11:12:30;;;;;;;0.85;0.70;;;19.60;99.90;;;;;;5100372;27;20191;-63
2022/09/22 11:15:05;;;;;;;1.88;0.80;;;19.50;99.90;;;;;;5089298;28;20203;-63
2022/09/22 11:17:51;;;;;;;2.20;0.70;;;19.40;99.90;;;;;;5115015;27;20190;-63
2022/09/22 11:20:21;;;;;;;4.95;1.10;;;19.40;99.90;;;;;;5114698;28;20175;-63
2022/09/22 11:23:24;;;;;;;1.17;0.70;;;19.40;99.90;;;;;;5107671;27;20176;-63
2022/09/22 11:26:17;;;;;;;0.85;0.85;;;19.50;99.90;;;;;;5105678;28;20187;-64
2022/09/22 11:29:04;;;;;;;0.98;0.98;;;19.50;99.90;;;;;;5107924;28;20177;-63
2022/09/22 11:31:48;;;;;;;2.20;1.00;;;19.60;99.90;;;;;;5117471;27;20185;-64
2022/09/22 11:34:32;;;;;;;0.98;0.88;;;19.50;99.90;;;;;;5095265;28;20603;-64
2022/09/22 11:36:57;;;;;;;2.05;1.20;;;19.50;99.90;;;;;;5114546;27;20171;-63
2022/09/22 11:39:40;;;;;;;1.45;1.00;;;19.40;99.90;;;;;;5106998;27;20267;-63
2022/09/22 11:42:31;;;;;;;4.60;0.68;;;19.50;99.90;;;;;;5103651;28;20263;-63
2022/09/22 11:45:09;;;;;;;1.48;0.90;;;19.30;99.90;;;;;;5103689;28;20185;-63
2022/09/22 11:48:14;;;;;;;1.33;1.10;;;19.40;99.90;;;;;;5120931;27;20201;-64
2022/09/22 11:50:57;;;;;;;1.10;0.80;;;19.50;99.90;;;;;;5032954;28;20229;-63
2022/09/22 11:53:44;;;;;;;0.70;0.70;;;19.50;99.90;;;;;;5057038;28;20750;-63
2022/09/22 11:56:47;;;;;;;0.80;0.80;;;19.60;99.90;;;;;;5080519;28;20226;-63
2022/09/22 11:59:34;;;;;;;0.80;0.80;;;19.70;99.90;;;;;;5104570;28;20183;-64
2022/09/22 12:02:10;;;;;;;3.42;1.15;;;19.50;99.90;;;;;;5113312;27;20670;-63
2022/09/22 12:04:42;;;;;;;1.98;0.77;;;19.70;99.90;;;;;;5094770;28;20167;-63
2022/09/22 12:07:24;;;;;;;0.77;0.77;;;19.70;99.90;;;;;;5113336;28;20172;-63
2022/09/22 12:10:05;;;;;;;1.02;0.88;;;19.60;99.90;;;;;;5095664;28;20227;-63
2022/09/22 12:12:32;;;;;;;2.50;0.90;;;19.60;99.90;;;;;;5094719;28;20198;-63
2022/09/22 12:15:08;;;;;;;1.33;1.10;;;19.50;99.90;;;;;;5117980;27;20197;-63
2022/09/22 12:17:44;;;;;;;1.17;0.82;;;19.40;99.90;;;;;;5110180;27;20241;-64
2022/09/22 12:20:32;;;;;;;1.15;1.05;;;19.40;99.90;;;;;;5113092;28;20217;-64
2022/09/22 12:23:18;;;;;;;2.30;0.90;;;19.40;99.90;;;;;;5108333;27;20593;-64
2022/09/22 12:25:53;;;;;;;1.10;1.00;;;19.60;99.90;;;;;;5091680;28;20638;-64
2022/09/22 12:28:26;;;;;;;3.08;0.90;;;19.50;99.90;;;;;;5122991;27;20269;-64
2022/09/22 12:31:14;;;;;;;2.55;1.00;;;19.70;99.90;;;;;;5085443;28;20180;-65
2022/09/22 12:33:55;;;;;;;1.10;1.00;;;19.60;99.90;;;;;;5089334;28;20204;-62
2022/09/22 12:36:35;;;;;;;1.33;1.23;;;19.40;99.90;;;;;;5106572;28;20180;-64
2022/09/22 12:39:19;;;;;;;0.90;0.90;;;19.40;99.90;;;;;;5078459;28;20216;-62
2022/09/22 12:41:56;;;;;;;1.40;1.30;;;19.70;99.90;;;;;;5090508;28;20547;-64
2022/09/22 12:44:28;;;;;;;0.98;0.98;;;19.90;99.90;;;;;;5113123;27;20183;-64
2022/09/22 12:47:05;;;;;;;2.72;1.40;;;19.90;99.90;;;;;;5099313;28;20260;-64
2022/09/22 12:49:31;;;;;;;0.70;0.70;;;19.60;99.90;;;;;;5103724;27;20616;-64
2022/09/22 12:51:57;;;;;;;1.48;0.98;;;19.50;99.90;;;;;;5102565;27;20180;-64
2022/09/22 12:54:23;;;;;;;5.07;1.17;;;19.40;99.90;;;;;;5113208;28;20210;-64
2022/09/22 12:57:00;;;;;;;1.08;1.08;;;19.50;99.90;;;;;;5102829;28;20292;-64
2022/09/22 12:59:35;;;;;;;1.20;1.20;;;19.70;99.90;;;;;;5075683;28;20176;-65
2022/09/22 13:02:10;;;;;;;3.53;1.20;;;19.80;99.90;;;;;;5106641;28;20179;-64
2022/09/22 13:04:36;;;;;;;1.40;1.30;;;19.80;99.90;;;;;;5099029;28;20167;-64
2022/09/22 13:07:04;;;;;;;1.10;1.10;;;19.90;99.90;;;;;;5058688;28;20275;-64
2022/09/22 13:09:31;;;;;;;1.38;1.33;;;19.80;99.90;;;;;;5087262;28;20625;-64
2022/09/22 13:12:13;;;;;;;1.20;0.88;;;20.00;99.90;;;;;;5078272;28;20187;-63
2022/09/22 13:15:06;;;;;;;1.23;1.13;;;19.90;99.90;;;;;;5082487;28;20208;-63
2022/09/22 13:17:42;;;;;;;2.20;1.02;;;20.00;99.90;;;;;;5104202;28;20652;-63
2022/09/22 13:20:18;;;;;;;2.05;0.80;;;19.90;99.90;;;;;;5091623;28;20576;-63
2022/09/22 13:22:45;;;;;;;1.15;1.05;;;19.70;99.90;;;;;;5096632;28;20179;-63
2022/09/22 13:25:30;;;;;;;1.23;1.13;;;19.50;99.90;;;;;;5090777;28;20699;-64
2022/09/22 13:28:11;;;;;;;1.15;1.08;;;19.90;99.90;;;;;;5070298;28;20208;-63
2022/09/22 13:30:39;;;;;;;2.15;1.00;;;20.00;99.90;;;;;;5120736;28;20168;-63
2022/09/22 13:33:14;;;;;;;3.15;1.27;;;20.00;99.90;;;;;;5106785;28;20188;-64